sensor_id;sensor_type;location;lat;lon;timestamp;P1;durP1;ratioP1;P2;durP2;ratioP2
12587;SDS011;6359;51.450;7.346;2022-10-16T00:00:38;10.35;;;3.15;;
12587;SDS011;6359;51.450;7.346;2022-10-16T00:03:07;11.23;;;3.25;;
12587;SDS011;6359;51.450;7.346;2022-10-16T00:05:38;7.93;;;3.10;;
12587;SDS011;6359;51.450;7.346;2022-10-16T00:08:06;5.78;;;2.40;;
12587;SDS011;6359;51.450;7.346;2022-10-16T00:10:33;5.03;;;2.35;;
12587;SDS011;6359;51.450;7.346;2022-10-16T00:13:00;2.78;;;2.13;;
12587;SDS011;6359;51.450;7.346;2022-10-16T00:15:28;5.57;;;2.10;;
12587;SDS011;6359;51.450;7.346;2022-10-16T00:17:55;3.65;;;2.20;;
12587;SDS011;6359;51.450;7.346;2022-10-16T00:20:22;3.15;;;2.10;;
12587;SDS011;6359;51.450;7.346;2022-10-16T00:22:49;4.00;;;1.90;;
12587;SDS011;6359;51.450;7.346;2022-10-16T00:25:16;5.88;;;2.08;;
12587;SDS011;6359;51.450;7.346;2022-10-16T00:27:43;5.50;;;2.00;;
12587;SDS011;6359;51.450;7.346;2022-10-16T00:30:10;4.53;;;1.90;;
12587;SDS011;6359;51.450;7.346;2022-10-16T00:32:38;3.20;;;1.73;;
12587;SDS011;6359;51.450;7.346;2022-10-16T00:35:05;5.88;;;1.85;;
12587;SDS011;6359;51.450;7.346;2022-10-16T00:37:32;1.63;;;1.48;;
12587;SDS011;6359;51.450;7.346;2022-10-16T00:39:59;5.82;;;1.77;;
12587;SDS011;6359;51.450;7.346;2022-10-16T00:42:26;4.15;;;1.80;;
12587;SDS011;6359;51.450;7.346;2022-10-16T00:44:54;4.38;;;2.25;;
12587;SDS011;6359;51.450;7.346;2022-10-16T00:47:22;6.28;;;1.95;;
12587;SDS011;6359;51.450;7.346;2022-10-16T00:49:56;6.40;;;2.28;;
12587;SDS011;6359;51.450;7.346;2022-10-16T00:52:26;4.80;;;1.90;;
12587;SDS011;6359;51.450;7.346;2022-10-16T00:54:56;2.38;;;1.98;;
12587;SDS011;6359;51.450;7.346;2022-10-16T00:57:24;5.03;;;2.50;;
12587;SDS011;6359;51.450;7.346;2022-10-16T00:59:51;4.22;;;1.80;;
12587;SDS011;6359;51.450;7.346;2022-10-16T01:02:19;1.70;;;1.60;;
12587;SDS011;6359;51.450;7.346;2022-10-16T01:04:47;6.30;;;2.05;;
12587;SDS011;6359;51.450;7.346;2022-10-16T01:07:22;3.08;;;1.55;;
12587;SDS011;6359;51.450;7.346;2022-10-16T01:09:59;4.72;;;1.63;;
12587;SDS011;6359;51.450;7.346;2022-10-16T01:12:36;2.75;;;1.55;;
12587;SDS011;6359;51.450;7.346;2022-10-16T01:15:11;5.60;;;1.70;;
12587;SDS011;6359;51.450;7.346;2022-10-16T01:17:45;4.30;;;1.65;;
12587;SDS011;6359;51.450;7.346;2022-10-16T01:20:20;2.60;;;1.50;;
12587;SDS011;6359;51.450;7.346;2022-10-16T01:28:38;5.97;;;1.58;;
12587;SDS011;6359;51.450;7.346;2022-10-16T01:31:08;4.30;;;1.60;;
12587;SDS011;6359;51.450;7.346;2022-10-16T01:33:38;3.45;;;1.52;;
12587;SDS011;6359;51.450;7.346;2022-10-16T01:36:09;6.07;;;1.80;;
12587;SDS011;6359;51.450;7.346;2022-10-16T01:38:39;3.00;;;1.67;;
12587;SDS011;6359;51.450;7.346;2022-10-16T01:41:08;1.90;;;1.50;;
12587;SDS011;6359;51.450;7.346;2022-10-16T01:43:39;2.50;;;1.70;;
12587;SDS011;6359;51.450;7.346;2022-10-16T01:46:09;1.50;;;1.33;;
12587;SDS011;6359;51.450;7.346;2022-10-16T01:48:39;2.60;;;1.58;;
12587;SDS011;6359;51.450;7.346;2022-10-16T01:51:08;1.60;;;1.40;;
12587;SDS011;6359;51.450;7.346;2022-10-16T01:53:37;2.17;;;1.63;;
12587;SDS011;6359;51.450;7.346;2022-10-16T01:56:06;3.75;;;1.50;;
12587;SDS011;6359;51.450;7.346;2022-10-16T01:58:36;3.28;;;1.58;;
12587;SDS011;6359;51.450;7.346;2022-10-16T02:01:08;6.03;;;1.55;;
12587;SDS011;6359;51.450;7.346;2022-10-16T02:03:39;2.30;;;1.50;;
12587;SDS011;6359;51.450;7.346;2022-10-16T02:06:08;2.58;;;1.50;;
12587;SDS011;6359;51.450;7.346;2022-10-16T02:08:35;3.13;;;1.40;;
12587;SDS011;6359;51.450;7.346;2022-10-16T02:11:04;3.28;;;1.73;;
12587;SDS011;6359;51.450;7.346;2022-10-16T02:13:32;3.22;;;1.50;;
12587;SDS011;6359;51.450;7.346;2022-10-16T02:16:03;4.78;;;1.85;;
12587;SDS011;6359;51.450;7.346;2022-10-16T02:18:31;1.80;;;1.67;;
12587;SDS011;6359;51.450;7.346;2022-10-16T02:20:59;2.55;;;1.80;;
12587;SDS011;6359;51.450;7.346;2022-10-16T02:23:31;2.45;;;1.65;;
12587;SDS011;6359;51.450;7.346;2022-10-16T02:26:04;6.03;;;1.75;;
12587;SDS011;6359;51.450;7.346;2022-10-16T02:28:36;2.13;;;1.70;;
12587;SDS011;6359;51.450;7.346;2022-10-16T02:31:10;3.25;;;1.70;;
12587;SDS011;6359;51.450;7.346;2022-10-16T02:33:38;2.65;;;1.70;;
12587;SDS011;6359;51.450;7.346;2022-10-16T02:36:08;3.45;;;1.90;;
12587;SDS011;6359;51.450;7.346;2022-10-16T02:38:35;1.90;;;1.67;;
12587;SDS011;6359;51.450;7.346;2022-10-16T02:41:05;2.17;;;1.60;;
12587;SDS011;6359;51.450;7.346;2022-10-16T02:43:52;3.17;;;1.90;;
12587;SDS011;6359;51.450;7.346;2022-10-16T02:46:53;2.17;;;1.58;;
12587;SDS011;6359;51.450;7.346;2022-10-16T02:49:35;4.20;;;1.70;;
12587;SDS011;6359;51.450;7.346;2022-10-16T02:52:03;3.50;;;1.75;;
12587;SDS011;6359;51.450;7.346;2022-10-16T02:54:52;5.03;;;1.65;;
12587;SDS011;6359;51.450;7.346;2022-10-16T02:57:18;6.95;;;1.90;;
12587;SDS011;6359;51.450;7.346;2022-10-16T02:59:45;3.80;;;1.70;;
12587;SDS011;6359;51.450;7.346;2022-10-16T03:02:14;1.92;;;1.73;;
12587;SDS011;6359;51.450;7.346;2022-10-16T03:04:40;4.43;;;1.67;;
12587;SDS011;6359;51.450;7.346;2022-10-16T03:07:07;3.00;;;1.75;;
12587;SDS011;6359;51.450;7.346;2022-10-16T03:09:34;1.83;;;1.70;;
12587;SDS011;6359;51.450;7.346;2022-10-16T03:12:01;2.60;;;1.40;;
12587;SDS011;6359;51.450;7.346;2022-10-16T03:14:28;3.17;;;1.67;;
12587;SDS011;6359;51.450;7.346;2022-10-16T03:16:55;1.83;;;1.55;;
12587;SDS011;6359;51.450;7.346;2022-10-16T03:19:23;4.65;;;1.52;;
12587;SDS011;6359;51.450;7.346;2022-10-16T03:21:50;1.88;;;1.55;;
12587;SDS011;6359;51.450;7.346;2022-10-16T03:24:17;1.27;;;1.23;;
12587;SDS011;6359;51.450;7.346;2022-10-16T03:26:44;1.90;;;1.20;;
12587;SDS011;6359;51.450;7.346;2022-10-16T03:29:11;1.90;;;1.30;;
12587;SDS011;6359;51.450;7.346;2022-10-16T03:31:38;6.63;;;1.17;;
12587;SDS011;6359;51.450;7.346;2022-10-16T03:34:05;2.72;;;1.30;;
12587;SDS011;6359;51.450;7.346;2022-10-16T03:36:33;1.02;;;1.02;;
12587;SDS011;6359;51.450;7.346;2022-10-16T03:39:00;1.30;;;1.20;;
12587;SDS011;6359;51.450;7.346;2022-10-16T03:41:27;2.35;;;1.20;;
12587;SDS011;6359;51.450;7.346;2022-10-16T03:43:54;1.30;;;1.20;;
12587;SDS011;6359;51.450;7.346;2022-10-16T03:46:20;1.63;;;1.20;;
12587;SDS011;6359;51.450;7.346;2022-10-16T03:48:47;1.20;;;1.10;;
12587;SDS011;6359;51.450;7.346;2022-10-16T03:51:14;4.35;;;1.10;;
12587;SDS011;6359;51.450;7.346;2022-10-16T03:53:42;2.33;;;1.20;;
12587;SDS011;6359;51.450;7.346;2022-10-16T03:56:09;0.88;;;0.88;;
12587;SDS011;6359;51.450;7.346;2022-10-16T03:58:36;0.82;;;0.82;;
12587;SDS011;6359;51.450;7.346;2022-10-16T04:01:03;1.45;;;0.98;;
12587;SDS011;6359;51.450;7.346;2022-10-16T04:03:30;2.95;;;1.40;;
12587;SDS011;6359;51.450;7.346;2022-10-16T04:05:57;0.80;;;0.80;;
12587;SDS011;6359;51.450;7.346;2022-10-16T04:08:23;1.50;;;1.10;;
12587;SDS011;6359;51.450;7.346;2022-10-16T04:10:52;1.58;;;1.08;;
12587;SDS011;6359;51.450;7.346;2022-10-16T04:13:19;0.93;;;0.93;;
12587;SDS011;6359;51.450;7.346;2022-10-16T04:15:45;2.25;;;1.02;;
12587;SDS011;6359;51.450;7.346;2022-10-16T04:18:12;1.63;;;1.10;;
12587;SDS011;6359;51.450;7.346;2022-10-16T04:20:40;1.00;;;1.00;;
12587;SDS011;6359;51.450;7.346;2022-10-16T04:23:07;1.17;;;0.90;;
12587;SDS011;6359;51.450;7.346;2022-10-16T04:25:34;1.40;;;1.10;;
12587;SDS011;6359;51.450;7.346;2022-10-16T04:28:02;2.17;;;1.20;;
12587;SDS011;6359;51.450;7.346;2022-10-16T04:30:29;1.05;;;1.00;;
12587;SDS011;6359;51.450;7.346;2022-10-16T04:32:56;1.35;;;1.10;;
12587;SDS011;6359;51.450;7.346;2022-10-16T04:35:23;3.10;;;1.27;;
12587;SDS011;6359;51.450;7.346;2022-10-16T04:37:50;1.35;;;1.25;;
12587;SDS011;6359;51.450;7.346;2022-10-16T04:40:17;1.20;;;1.10;;
12587;SDS011;6359;51.450;7.346;2022-10-16T04:42:43;1.27;;;1.17;;
12587;SDS011;6359;51.450;7.346;2022-10-16T04:45:12;0.93;;;0.93;;
12587;SDS011;6359;51.450;7.346;2022-10-16T04:47:39;2.67;;;1.02;;
12587;SDS011;6359;51.450;7.346;2022-10-16T04:50:06;1.00;;;1.00;;
12587;SDS011;6359;51.450;7.346;2022-10-16T04:52:33;2.03;;;0.98;;
12587;SDS011;6359;51.450;7.346;2022-10-16T04:55:00;0.90;;;0.90;;
12587;SDS011;6359;51.450;7.346;2022-10-16T04:57:27;2.20;;;1.13;;
12587;SDS011;6359;51.450;7.346;2022-10-16T04:59:54;2.70;;;1.08;;
12587;SDS011;6359;51.450;7.346;2022-10-16T05:02:23;2.80;;;1.23;;
12587;SDS011;6359;51.450;7.346;2022-10-16T05:04:49;3.58;;;1.00;;
12587;SDS011;6359;51.450;7.346;2022-10-16T05:07:17;3.50;;;0.90;;
12587;SDS011;6359;51.450;7.346;2022-10-16T05:09:44;0.90;;;0.82;;
12587;SDS011;6359;51.450;7.346;2022-10-16T05:12:11;7.85;;;1.10;;
12587;SDS011;6359;51.450;7.346;2022-10-16T05:14:38;4.82;;;1.48;;
12587;SDS011;6359;51.450;7.346;2022-10-16T05:17:04;2.42;;;1.10;;
12587;SDS011;6359;51.450;7.346;2022-10-16T05:19:33;2.65;;;1.25;;
12587;SDS011;6359;51.450;7.346;2022-10-16T05:22:00;1.20;;;1.10;;
12587;SDS011;6359;51.450;7.346;2022-10-16T05:24:28;2.10;;;1.23;;
12587;SDS011;6359;51.450;7.346;2022-10-16T05:26:54;4.25;;;1.13;;
12587;SDS011;6359;51.450;7.346;2022-10-16T05:29:22;1.75;;;1.13;;
12587;SDS011;6359;51.450;7.346;2022-10-16T05:31:50;4.80;;;1.13;;
12587;SDS011;6359;51.450;7.346;2022-10-16T05:34:17;3.55;;;1.10;;
12587;SDS011;6359;51.450;7.346;2022-10-16T05:36:46;1.73;;;1.17;;
12587;SDS011;6359;51.450;7.346;2022-10-16T05:39:13;4.57;;;1.27;;
12587;SDS011;6359;51.450;7.346;2022-10-16T05:41:41;1.30;;;1.20;;
12587;SDS011;6359;51.450;7.346;2022-10-16T05:44:08;2.05;;;1.10;;
12587;SDS011;6359;51.450;7.346;2022-10-16T05:46:35;3.78;;;1.10;;
12587;SDS011;6359;51.450;7.346;2022-10-16T05:49:02;1.30;;;1.20;;
12587;SDS011;6359;51.450;7.346;2022-10-16T05:51:29;2.00;;;1.20;;
12587;SDS011;6359;51.450;7.346;2022-10-16T05:53:57;3.10;;;1.00;;
12587;SDS011;6359;51.450;7.346;2022-10-16T05:56:24;1.75;;;1.30;;
12587;SDS011;6359;51.450;7.346;2022-10-16T05:58:51;3.30;;;1.25;;
12587;SDS011;6359;51.450;7.346;2022-10-16T06:01:18;1.80;;;1.08;;
12587;SDS011;6359;51.450;7.346;2022-10-16T06:03:49;2.90;;;1.13;;
12587;SDS011;6359;51.450;7.346;2022-10-16T06:06:16;6.10;;;1.00;;
12587;SDS011;6359;51.450;7.346;2022-10-16T06:08:45;1.30;;;1.20;;
12587;SDS011;6359;51.450;7.346;2022-10-16T06:11:15;9.80;;;1.30;;
12587;SDS011;6359;51.450;7.346;2022-10-16T06:13:43;3.03;;;1.10;;
12587;SDS011;6359;51.450;7.346;2022-10-16T06:16:11;2.05;;;1.30;;
12587;SDS011;6359;51.450;7.346;2022-10-16T06:18:38;4.25;;;1.30;;
12587;SDS011;6359;51.450;7.346;2022-10-16T06:21:09;3.25;;;1.20;;
12587;SDS011;6359;51.450;7.346;2022-10-16T06:23:37;3.03;;;1.30;;
12587;SDS011;6359;51.450;7.346;2022-10-16T06:26:05;3.13;;;1.30;;
12587;SDS011;6359;51.450;7.346;2022-10-16T06:28:34;4.20;;;0.90;;
12587;SDS011;6359;51.450;7.346;2022-10-16T06:31:02;1.00;;;1.00;;
12587;SDS011;6359;51.450;7.346;2022-10-16T06:33:30;1.35;;;1.23;;
12587;SDS011;6359;51.450;7.346;2022-10-16T06:36:00;3.33;;;1.10;;
12587;SDS011;6359;51.450;7.346;2022-10-16T06:38:28;1.02;;;1.02;;
12587;SDS011;6359;51.450;7.346;2022-10-16T06:40:55;1.50;;;1.00;;
12587;SDS011;6359;51.450;7.346;2022-10-16T06:43:23;2.47;;;1.10;;
12587;SDS011;6359;51.450;7.346;2022-10-16T06:45:52;0.93;;;0.93;;
12587;SDS011;6359;51.450;7.346;2022-10-16T06:48:19;2.38;;;0.93;;
12587;SDS011;6359;51.450;7.346;2022-10-16T06:50:54;1.40;;;1.27;;
12587;SDS011;6359;51.450;7.346;2022-10-16T06:53:22;4.07;;;1.15;;
12587;SDS011;6359;51.450;7.346;2022-10-16T06:55:49;2.78;;;1.10;;
12587;SDS011;6359;51.450;7.346;2022-10-16T06:58:16;1.95;;;1.30;;
12587;SDS011;6359;51.450;7.346;2022-10-16T07:00:43;2.53;;;1.13;;
12587;SDS011;6359;51.450;7.346;2022-10-16T07:03:11;4.30;;;1.10;;
12587;SDS011;6359;51.450;7.346;2022-10-16T07:05:38;1.77;;;1.25;;
12587;SDS011;6359;51.450;7.346;2022-10-16T07:08:05;3.42;;;1.20;;
12587;SDS011;6359;51.450;7.346;2022-10-16T07:10:32;1.90;;;1.30;;
12587;SDS011;6359;51.450;7.346;2022-10-16T07:12:59;3.50;;;1.25;;
12587;SDS011;6359;51.450;7.346;2022-10-16T07:15:26;1.63;;;1.30;;
12587;SDS011;6359;51.450;7.346;2022-10-16T07:17:53;3.80;;;1.50;;
12587;SDS011;6359;51.450;7.346;2022-10-16T07:20:22;3.80;;;1.38;;
12587;SDS011;6359;51.450;7.346;2022-10-16T07:22:48;3.53;;;1.48;;
12587;SDS011;6359;51.450;7.346;2022-10-16T07:25:16;6.22;;;1.83;;
12587;SDS011;6359;51.450;7.346;2022-10-16T07:27:43;5.20;;;1.23;;
12587;SDS011;6359;51.450;7.346;2022-10-16T07:30:09;2.95;;;1.75;;
12587;SDS011;6359;51.450;7.346;2022-10-16T07:32:36;3.45;;;1.80;;
12587;SDS011;6359;51.450;7.346;2022-10-16T07:35:04;3.55;;;1.63;;
12587;SDS011;6359;51.450;7.346;2022-10-16T07:37:33;3.83;;;1.50;;
12587;SDS011;6359;51.450;7.346;2022-10-16T07:40:00;3.83;;;1.80;;
12587;SDS011;6359;51.450;7.346;2022-10-16T07:42:26;4.45;;;2.20;;
12587;SDS011;6359;51.450;7.346;2022-10-16T07:44:53;3.35;;;1.95;;
12587;SDS011;6359;51.450;7.346;2022-10-16T07:47:20;5.07;;;2.15;;
12587;SDS011;6359;51.450;7.346;2022-10-16T07:49:47;7.03;;;2.35;;
12587;SDS011;6359;51.450;7.346;2022-10-16T07:52:14;5.45;;;2.30;;
12587;SDS011;6359;51.450;7.346;2022-10-16T07:54:42;7.30;;;2.38;;
12587;SDS011;6359;51.450;7.346;2022-10-16T07:57:09;4.53;;;2.03;;
12587;SDS011;6359;51.450;7.346;2022-10-16T07:59:36;2.03;;;1.13;;
12587;SDS011;6359;51.450;7.346;2022-10-16T08:02:03;3.53;;;1.52;;
12587;SDS011;6359;51.450;7.346;2022-10-16T08:04:30;3.67;;;1.55;;
12587;SDS011;6359;51.450;7.346;2022-10-16T08:06:57;2.83;;;1.50;;
12587;SDS011;6359;51.450;7.346;2022-10-16T08:09:23;5.80;;;1.30;;
12587;SDS011;6359;51.450;7.346;2022-10-16T08:11:52;2.28;;;0.93;;
12587;SDS011;6359;51.450;7.346;2022-10-16T08:14:18;0.95;;;0.80;;
12587;SDS011;6359;51.450;7.346;2022-10-16T08:16:45;3.72;;;1.10;;
12587;SDS011;6359;51.450;7.346;2022-10-16T08:19:12;1.77;;;1.02;;
12587;SDS011;6359;51.450;7.346;2022-10-16T08:21:40;2.60;;;1.00;;
12587;SDS011;6359;51.450;7.346;2022-10-16T08:24:07;1.75;;;1.17;;
12587;SDS011;6359;51.450;7.346;2022-10-16T08:26:34;4.53;;;1.20;;
12587;SDS011;6359;51.450;7.346;2022-10-16T08:29:02;3.42;;;1.90;;
12587;SDS011;6359;51.450;7.346;2022-10-16T08:31:29;2.08;;;1.27;;
12587;SDS011;6359;51.450;7.346;2022-10-16T08:33:56;2.92;;;1.35;;
12587;SDS011;6359;51.450;7.346;2022-10-16T08:36:23;1.25;;;1.10;;
12587;SDS011;6359;51.450;7.346;2022-10-16T08:38:50;2.55;;;1.20;;
12587;SDS011;6359;51.450;7.346;2022-10-16T08:41:33;2.85;;;1.30;;
12587;SDS011;6359;51.450;7.346;2022-10-16T08:44:31;1.27;;;1.00;;
12587;SDS011;6359;51.450;7.346;2022-10-16T08:47:18;1.27;;;0.85;;
12587;SDS011;6359;51.450;7.346;2022-10-16T08:49:53;3.22;;;1.17;;
12587;SDS011;6359;51.450;7.346;2022-10-16T08:52:25;3.78;;;0.88;;
12587;SDS011;6359;51.450;7.346;2022-10-16T08:54:56;3.38;;;0.60;;
12587;SDS011;6359;51.450;7.346;2022-10-16T08:57:24;1.50;;;0.95;;
12587;SDS011;6359;51.450;7.346;2022-10-16T08:59:54;1.70;;;0.90;;
12587;SDS011;6359;51.450;7.346;2022-10-16T09:02:27;1.77;;;0.82;;
12587;SDS011;6359;51.450;7.346;2022-10-16T09:05:18;3.70;;;1.00;;
12587;SDS011;6359;51.450;7.346;2022-10-16T09:07:53;1.95;;;0.90;;
12587;SDS011;6359;51.450;7.346;2022-10-16T09:10:31;1.92;;;0.60;;
12587;SDS011;6359;51.450;7.346;2022-10-16T09:13:09;2.08;;;0.98;;
12587;SDS011;6359;51.450;7.346;2022-10-16T09:15:46;2.80;;;0.90;;
12587;SDS011;6359;51.450;7.346;2022-10-16T09:18:20;4.03;;;0.90;;
12587;SDS011;6359;51.450;7.346;2022-10-16T09:20:53;0.80;;;0.80;;
12587;SDS011;6359;51.450;7.346;2022-10-16T09:23:26;1.45;;;0.70;;
12587;SDS011;6359;51.450;7.346;2022-10-16T09:25:54;3.90;;;0.82;;
12587;SDS011;6359;51.450;7.346;2022-10-16T09:28:24;2.42;;;0.77;;
12587;SDS011;6359;51.450;7.346;2022-10-16T09:30:52;3.17;;;0.80;;
12587;SDS011;6359;51.450;7.346;2022-10-16T09:33:20;4.53;;;1.02;;
12587;SDS011;6359;51.450;7.346;2022-10-16T09:35:51;4.05;;;0.90;;
12587;SDS011;6359;51.450;7.346;2022-10-16T09:38:21;3.72;;;0.77;;
12587;SDS011;6359;51.450;7.346;2022-10-16T09:40:49;3.22;;;0.88;;
12587;SDS011;6359;51.450;7.346;2022-10-16T09:43:21;2.83;;;1.85;;
12587;SDS011;6359;51.450;7.346;2022-10-16T09:45:55;2.42;;;0.95;;
12587;SDS011;6359;51.450;7.346;2022-10-16T09:48:23;2.65;;;0.80;;
12587;SDS011;6359;51.450;7.346;2022-10-16T09:50:56;5.95;;;0.93;;
12587;SDS011;6359;51.450;7.346;2022-10-16T09:53:24;2.22;;;0.80;;
12587;SDS011;6359;51.450;7.346;2022-10-16T09:56:04;2.08;;;0.88;;
12587;SDS011;6359;51.450;7.346;2022-10-16T09:58:31;1.33;;;1.08;;
12587;SDS011;6359;51.450;7.346;2022-10-16T10:01:00;3.88;;;1.42;;
12587;SDS011;6359;51.450;7.346;2022-10-16T10:03:34;2.22;;;0.95;;
12587;SDS011;6359;51.450;7.346;2022-10-16T10:06:06;1.60;;;0.73;;
12587;SDS011;6359;51.450;7.346;2022-10-16T10:08:52;2.15;;;0.90;;
12587;SDS011;6359;51.450;7.346;2022-10-16T10:14:27;2.53;;;0.63;;
12587;SDS011;6359;51.450;7.346;2022-10-16T10:19:49;2.53;;;0.88;;
12587;SDS011;6359;51.450;7.346;2022-10-16T10:22:19;8.57;;;0.98;;
12587;SDS011;6359;51.450;7.346;2022-10-16T10:28:03;1.77;;;0.80;;
12587;SDS011;6359;51.450;7.346;2022-10-16T10:30:44;2.40;;;0.93;;
12587;SDS011;6359;51.450;7.346;2022-10-16T10:33:25;2.15;;;0.82;;
12587;SDS011;6359;51.450;7.346;2022-10-16T10:36:00;1.52;;;0.88;;
12587;SDS011;6359;51.450;7.346;2022-10-16T10:38:39;1.65;;;1.13;;
12587;SDS011;6359;51.450;7.346;2022-10-16T10:41:20;1.25;;;0.90;;
12587;SDS011;6359;51.450;7.346;2022-10-16T10:44:07;3.58;;;0.98;;
12587;SDS011;6359;51.450;7.346;2022-10-16T10:46:44;1.30;;;0.90;;
12587;SDS011;6359;51.450;7.346;2022-10-16T10:49:19;4.10;;;0.80;;
12587;SDS011;6359;51.450;7.346;2022-10-16T10:52:00;3.10;;;0.77;;
12587;SDS011;6359;51.450;7.346;2022-10-16T10:54:36;1.50;;;0.88;;
12587;SDS011;6359;51.450;7.346;2022-10-16T10:57:09;3.65;;;0.95;;
12587;SDS011;6359;51.450;7.346;2022-10-16T10:59:52;1.30;;;0.70;;
12587;SDS011;6359;51.450;7.346;2022-10-16T11:02:31;2.45;;;0.68;;
12587;SDS011;6359;51.450;7.346;2022-10-16T11:05:15;1.88;;;0.70;;
12587;SDS011;6359;51.450;7.346;2022-10-16T11:07:57;4.85;;;1.38;;
12587;SDS011;6359;51.450;7.346;2022-10-16T11:10:27;2.53;;;1.20;;
12587;SDS011;6359;51.450;7.346;2022-10-16T11:13:02;2.85;;;0.80;;
12587;SDS011;6359;51.450;7.346;2022-10-16T11:15:37;0.98;;;0.80;;
12587;SDS011;6359;51.450;7.346;2022-10-16T11:18:08;1.73;;;0.80;;
12587;SDS011;6359;51.450;7.346;2022-10-16T11:20:45;2.83;;;0.85;;
12587;SDS011;6359;51.450;7.346;2022-10-16T11:23:18;3.83;;;1.00;;
12587;SDS011;6359;51.450;7.346;2022-10-16T11:25:49;4.55;;;1.00;;
12587;SDS011;6359;51.450;7.346;2022-10-16T11:28:18;3.03;;;1.20;;
12587;SDS011;6359;51.450;7.346;2022-10-16T11:30:47;2.15;;;0.93;;
12587;SDS011;6359;51.450;7.346;2022-10-16T11:33:28;3.90;;;1.00;;
12587;SDS011;6359;51.450;7.346;2022-10-16T11:36:02;2.83;;;0.98;;
12587;SDS011;6359;51.450;7.346;2022-10-16T11:38:35;1.77;;;0.57;;
12587;SDS011;6359;51.450;7.346;2022-10-16T11:41:11;1.48;;;0.60;;
12587;SDS011;6359;51.450;7.346;2022-10-16T11:43:46;1.10;;;0.60;;
12587;SDS011;6359;51.450;7.346;2022-10-16T11:46:21;6.82;;;0.90;;
12587;SDS011;6359;51.450;7.346;2022-10-16T11:48:51;1.42;;;0.80;;
12587;SDS011;6359;51.450;7.346;2022-10-16T11:51:26;3.25;;;0.70;;
12587;SDS011;6359;51.450;7.346;2022-10-16T11:53:59;3.03;;;0.98;;
12587;SDS011;6359;51.450;7.346;2022-10-16T11:56:31;0.65;;;0.60;;
12587;SDS011;6359;51.450;7.346;2022-10-16T11:59:03;2.80;;;0.85;;
12587;SDS011;6359;51.450;7.346;2022-10-16T12:01:37;3.28;;;1.73;;
12587;SDS011;6359;51.450;7.346;2022-10-16T12:04:19;1.75;;;0.95;;
12587;SDS011;6359;51.450;7.346;2022-10-16T12:06:55;2.63;;;1.02;;
12587;SDS011;6359;51.450;7.346;2022-10-16T12:09:26;1.90;;;0.70;;
12587;SDS011;6359;51.450;7.346;2022-10-16T12:11:55;3.40;;;0.80;;
12587;SDS011;6359;51.450;7.346;2022-10-16T12:19:57;2.15;;;0.75;;
12587;SDS011;6359;51.450;7.346;2022-10-16T12:22:28;2.75;;;1.00;;
12587;SDS011;6359;51.450;7.346;2022-10-16T12:24:57;1.92;;;0.70;;
12587;SDS011;6359;51.450;7.346;2022-10-16T12:27:27;1.40;;;0.60;;
12587;SDS011;6359;51.450;7.346;2022-10-16T12:29:55;3.67;;;0.60;;
12587;SDS011;6359;51.450;7.346;2022-10-16T12:32:27;1.10;;;0.60;;
12587;SDS011;6359;51.450;7.346;2022-10-16T12:34:58;2.05;;;0.60;;
12587;SDS011;6359;51.450;7.346;2022-10-16T12:37:28;2.58;;;1.00;;
12587;SDS011;6359;51.450;7.346;2022-10-16T12:39:58;0.95;;;0.88;;
12587;SDS011;6359;51.450;7.346;2022-10-16T12:42:37;3.45;;;0.98;;
12587;SDS011;6359;51.450;7.346;2022-10-16T12:45:13;2.30;;;0.90;;
12587;SDS011;6359;51.450;7.346;2022-10-16T12:47:51;2.30;;;0.80;;
12587;SDS011;6359;51.450;7.346;2022-10-16T12:50:26;5.28;;;0.80;;
12587;SDS011;6359;51.450;7.346;2022-10-16T12:53:01;2.05;;;0.75;;
12587;SDS011;6359;51.450;7.346;2022-10-16T12:55:32;5.07;;;0.90;;
12587;SDS011;6359;51.450;7.346;2022-10-16T12:58:11;1.35;;;0.80;;
12587;SDS011;6359;51.450;7.346;2022-10-16T13:00:50;3.25;;;0.98;;
12587;SDS011;6359;51.450;7.346;2022-10-16T13:06:33;1.67;;;0.80;;
12587;SDS011;6359;51.450;7.346;2022-10-16T13:09:15;2.45;;;1.00;;
12587;SDS011;6359;51.450;7.346;2022-10-16T13:11:59;1.50;;;0.75;;
12587;SDS011;6359;51.450;7.346;2022-10-16T13:14:40;12.15;;;1.42;;
12587;SDS011;6359;51.450;7.346;2022-10-16T13:17:20;3.40;;;0.85;;
12587;SDS011;6359;51.450;7.346;2022-10-16T13:19:57;0.85;;;0.60;;
12587;SDS011;6359;51.450;7.346;2022-10-16T13:22:33;3.85;;;1.00;;
12587;SDS011;6359;51.450;7.346;2022-10-16T13:25:13;3.10;;;0.82;;
12587;SDS011;6359;51.450;7.346;2022-10-16T13:27:48;5.65;;;0.90;;
12587;SDS011;6359;51.450;7.346;2022-10-16T13:30:20;2.47;;;0.93;;
12587;SDS011;6359;51.450;7.346;2022-10-16T13:32:52;2.17;;;0.82;;
12587;SDS011;6359;51.450;7.346;2022-10-16T13:35:25;2.58;;;0.80;;
12587;SDS011;6359;51.450;7.346;2022-10-16T13:38:03;1.55;;;0.70;;
12587;SDS011;6359;51.450;7.346;2022-10-16T13:40:32;0.77;;;0.70;;
12587;SDS011;6359;51.450;7.346;2022-10-16T13:42:59;1.98;;;1.00;;
12587;SDS011;6359;51.450;7.346;2022-10-16T13:45:27;3.58;;;1.20;;
12587;SDS011;6359;51.450;7.346;2022-10-16T13:48:01;3.70;;;1.17;;
12587;SDS011;6359;51.450;7.346;2022-10-16T13:50:29;2.08;;;0.75;;
12587;SDS011;6359;51.450;7.346;2022-10-16T13:53:03;1.33;;;0.95;;
12587;SDS011;6359;51.450;7.346;2022-10-16T13:55:32;1.23;;;0.70;;
12587;SDS011;6359;51.450;7.346;2022-10-16T13:58:06;1.45;;;0.70;;
12587;SDS011;6359;51.450;7.346;2022-10-16T14:00:34;1.65;;;0.90;;
12587;SDS011;6359;51.450;7.346;2022-10-16T14:03:02;3.15;;;0.60;;
12587;SDS011;6359;51.450;7.346;2022-10-16T14:05:31;0.95;;;0.57;;
12587;SDS011;6359;51.450;7.346;2022-10-16T14:07:59;2.53;;;1.00;;
12587;SDS011;6359;51.450;7.346;2022-10-16T14:10:26;1.10;;;0.60;;
12587;SDS011;6359;51.450;7.346;2022-10-16T14:13:00;3.78;;;0.85;;
12587;SDS011;6359;51.450;7.346;2022-10-16T14:15:29;1.80;;;0.90;;
12587;SDS011;6359;51.450;7.346;2022-10-16T14:17:57;1.88;;;0.60;;
12587;SDS011;6359;51.450;7.346;2022-10-16T14:20:26;4.05;;;0.93;;
12587;SDS011;6359;51.450;7.346;2022-10-16T14:23:00;2.72;;;0.93;;
12587;SDS011;6359;51.450;7.346;2022-10-16T14:25:30;3.08;;;0.80;;
12587;SDS011;6359;51.450;7.346;2022-10-16T14:28:00;3.00;;;0.90;;
12587;SDS011;6359;51.450;7.346;2022-10-16T14:30:29;1.85;;;0.90;;
12587;SDS011;6359;51.450;7.346;2022-10-16T14:32:59;2.40;;;1.10;;
12587;SDS011;6359;51.450;7.346;2022-10-16T14:35:28;0.88;;;0.85;;
12587;SDS011;6359;51.450;7.346;2022-10-16T14:37:57;4.03;;;1.40;;
12587;SDS011;6359;51.450;7.346;2022-10-16T14:40:26;2.85;;;1.00;;
12587;SDS011;6359;51.450;7.346;2022-10-16T14:42:54;4.05;;;0.90;;
12587;SDS011;6359;51.450;7.346;2022-10-16T14:45:23;3.05;;;0.95;;
12587;SDS011;6359;51.450;7.346;2022-10-16T14:47:53;1.50;;;1.00;;
12587;SDS011;6359;51.450;7.346;2022-10-16T14:50:22;1.38;;;0.93;;
12587;SDS011;6359;51.450;7.346;2022-10-16T14:52:49;3.97;;;1.45;;
12587;SDS011;6359;51.450;7.346;2022-10-16T14:55:16;3.13;;;1.20;;
12587;SDS011;6359;51.450;7.346;2022-10-16T14:57:44;1.25;;;0.85;;
12587;SDS011;6359;51.450;7.346;2022-10-16T15:00:14;2.35;;;0.80;;
12587;SDS011;6359;51.450;7.346;2022-10-16T15:02:46;4.22;;;1.10;;
12587;SDS011;6359;51.450;7.346;2022-10-16T15:05:15;1.95;;;1.00;;
12587;SDS011;6359;51.450;7.346;2022-10-16T15:07:44;1.85;;;0.85;;
12587;SDS011;6359;51.450;7.346;2022-10-16T15:10:12;2.25;;;1.00;;
12587;SDS011;6359;51.450;7.346;2022-10-16T15:12:39;1.27;;;0.90;;
12587;SDS011;6359;51.450;7.346;2022-10-16T15:15:15;0.98;;;0.77;;
12587;SDS011;6359;51.450;7.346;2022-10-16T15:17:53;3.92;;;1.10;;
12587;SDS011;6359;51.450;7.346;2022-10-16T15:20:22;2.85;;;1.13;;
12587;SDS011;6359;51.450;7.346;2022-10-16T15:22:49;3.22;;;0.90;;
12587;SDS011;6359;51.450;7.346;2022-10-16T15:25:23;4.80;;;1.30;;
12587;SDS011;6359;51.450;7.346;2022-10-16T15:27:57;2.55;;;1.20;;
12587;SDS011;6359;51.450;7.346;2022-10-16T15:30:25;1.50;;;0.93;;
12587;SDS011;6359;51.450;7.346;2022-10-16T15:32:53;1.50;;;1.08;;
12587;SDS011;6359;51.450;7.346;2022-10-16T15:35:20;2.70;;;1.40;;
12587;SDS011;6359;51.450;7.346;2022-10-16T15:37:47;4.40;;;1.55;;
12587;SDS011;6359;51.450;7.346;2022-10-16T15:40:15;4.57;;;1.92;;
12587;SDS011;6359;51.450;7.346;2022-10-16T15:42:42;5.43;;;2.05;;